sensor_id;sensor_type;location;lat;lon;timestamp;P1;durP1;ratioP1;P2;durP2;ratioP2
23181;SDS011;11759;51.282;6.642;2022-07-29T00:02:13;6.93;;;1.55;;
23181;SDS011;11759;51.282;6.642;2022-07-29T00:04:40;11.55;;;1.90;;
23181;SDS011;11759;51.282;6.642;2022-07-29T00:07:07;8.32;;;1.92;;
23181;SDS011;11759;51.282;6.642;2022-07-29T00:09:33;4.35;;;1.45;;
23181;SDS011;11759;51.282;6.642;2022-07-29T00:12:16;6.63;;;2.17;;
23181;SDS011;11759;51.282;6.642;2022-07-29T00:14:51;8.75;;;1.75;;
23181;SDS011;11759;51.282;6.642;2022-07-29T00:17:18;5.60;;;1.70;;
23181;SDS011;11759;51.282;6.642;2022-07-29T00:19:45;11.10;;;1.70;;
23181;SDS011;11759;51.282;6.642;2022-07-29T00:22:11;5.80;;;1.67;;
23181;SDS011;11759;51.282;6.642;2022-07-29T00:24:38;9.65;;;1.63;;
23181;SDS011;11759;51.282;6.642;2022-07-29T00:27:04;8.82;;;1.70;;
23181;SDS011;11759;51.282;6.642;2022-07-29T00:29:31;7.88;;;1.83;;
23181;SDS011;11759;51.282;6.642;2022-07-29T00:32:00;7.03;;;1.48;;
23181;SDS011;11759;51.282;6.642;2022-07-29T00:34:26;7.40;;;1.80;;
23181;SDS011;11759;51.282;6.642;2022-07-29T00:37:11;4.55;;;1.92;;
23181;SDS011;11759;51.282;6.642;2022-07-29T00:39:38;5.30;;;1.65;;
23181;SDS011;11759;51.282;6.642;2022-07-29T00:42:04;10.43;;;1.65;;
23181;SDS011;11759;51.282;6.642;2022-07-29T00:44:35;8.52;;;1.70;;
23181;SDS011;11759;51.282;6.642;2022-07-29T00:47:06;8.68;;;1.63;;
23181;SDS011;11759;51.282;6.642;2022-07-29T00:49:34;6.03;;;1.75;;
23181;SDS011;11759;51.282;6.642;2022-07-29T00:52:01;11.23;;;1.90;;
23181;SDS011;11759;51.282;6.642;2022-07-29T00:54:28;7.28;;;1.83;;
23181;SDS011;11759;51.282;6.642;2022-07-29T00:56:57;8.00;;;1.95;;
23181;SDS011;11759;51.282;6.642;2022-07-29T00:59:25;4.43;;;1.60;;
23181;SDS011;11759;51.282;6.642;2022-07-29T01:02:01;5.72;;;1.77;;
23181;SDS011;11759;51.282;6.642;2022-07-29T01:04:29;4.47;;;1.42;;
23181;SDS011;11759;51.282;6.642;2022-07-29T01:06:57;8.80;;;1.88;;
23181;SDS011;11759;51.282;6.642;2022-07-29T01:09:25;9.45;;;2.08;;
23181;SDS011;11759;51.282;6.642;2022-07-29T01:12:11;10.43;;;1.58;;
23181;SDS011;11759;51.282;6.642;2022-07-29T01:14:39;7.53;;;1.77;;
23181;SDS011;11759;51.282;6.642;2022-07-29T01:17:09;5.43;;;1.73;;
23181;SDS011;11759;51.282;6.642;2022-07-29T01:28:20;7.50;;;1.88;;
23181;SDS011;11759;51.282;6.642;2022-07-29T01:30:56;9.48;;;2.08;;
23181;SDS011;11759;51.282;6.642;2022-07-29T01:33:23;5.93;;;2.00;;
23181;SDS011;11759;51.282;6.642;2022-07-29T01:36:10;5.93;;;1.75;;
23181;SDS011;11759;51.282;6.642;2022-07-29T01:38:41;9.73;;;1.58;;
23181;SDS011;11759;51.282;6.642;2022-07-29T01:41:09;13.40;;;2.38;;
23181;SDS011;11759;51.282;6.642;2022-07-29T01:43:49;8.73;;;1.90;;
23181;SDS011;11759;51.282;6.642;2022-07-29T01:46:21;8.20;;;2.50;;
23181;SDS011;11759;51.282;6.642;2022-07-29T01:48:59;7.35;;;2.70;;
23181;SDS011;11759;51.282;6.642;2022-07-29T01:51:40;9.27;;;2.90;;
23181;SDS011;11759;51.282;6.642;2022-07-29T01:56:45;12.00;;;3.00;;
23181;SDS011;11759;51.282;6.642;2022-07-29T01:59:13;5.95;;;2.85;;
23181;SDS011;11759;51.282;6.642;2022-07-29T02:01:42;7.88;;;2.80;;
23181;SDS011;11759;51.282;6.642;2022-07-29T02:04:10;8.00;;;3.08;;
23181;SDS011;11759;51.282;6.642;2022-07-29T02:06:55;10.52;;;3.30;;
23181;SDS011;11759;51.282;6.642;2022-07-29T02:09:25;11.63;;;3.03;;
23181;SDS011;11759;51.282;6.642;2022-07-29T02:11:52;7.60;;;3.00;;
23181;SDS011;11759;51.282;6.642;2022-07-29T02:14:20;7.70;;;2.78;;
23181;SDS011;11759;51.282;6.642;2022-07-29T02:16:48;9.10;;;2.42;;
23181;SDS011;11759;51.282;6.642;2022-07-29T02:19:17;6.88;;;2.15;;
23181;SDS011;11759;51.282;6.642;2022-07-29T02:21:44;12.98;;;2.90;;
23181;SDS011;11759;51.282;6.642;2022-07-29T02:24:12;7.97;;;2.08;;
23181;SDS011;11759;51.282;6.642;2022-07-29T02:26:40;7.22;;;1.80;;
23181;SDS011;11759;51.282;6.642;2022-07-29T02:29:16;3.10;;;1.70;;
23181;SDS011;11759;51.282;6.642;2022-07-29T02:31:46;8.95;;;2.30;;
23181;SDS011;11759;51.282;6.642;2022-07-29T02:34:14;5.60;;;1.75;;
23181;SDS011;11759;51.282;6.642;2022-07-29T02:36:45;8.43;;;2.15;;
23181;SDS011;11759;51.282;6.642;2022-07-29T02:39:14;3.78;;;1.60;;
23181;SDS011;11759;51.282;6.642;2022-07-29T02:41:43;9.32;;;2.03;;
23181;SDS011;11759;51.282;6.642;2022-07-29T02:44:14;13.32;;;2.45;;
23181;SDS011;11759;51.282;6.642;2022-07-29T02:46:54;10.60;;;2.20;;
23181;SDS011;11759;51.282;6.642;2022-07-29T02:51:56;8.27;;;1.40;;
23181;SDS011;11759;51.282;6.642;2022-07-29T02:57:19;4.25;;;1.70;;
23181;SDS011;11759;51.282;6.642;2022-07-29T02:59:49;7.03;;;1.60;;
23181;SDS011;11759;51.282;6.642;2022-07-29T03:02:18;5.45;;;1.55;;
23181;SDS011;11759;51.282;6.642;2022-07-29T03:04:44;6.13;;;1.90;;
23181;SDS011;11759;51.282;6.642;2022-07-29T03:07:13;6.63;;;1.60;;
23181;SDS011;11759;51.282;6.642;2022-07-29T03:09:40;11.65;;;2.08;;
23181;SDS011;11759;51.282;6.642;2022-07-29T03:12:08;6.28;;;1.70;;
23181;SDS011;11759;51.282;6.642;2022-07-29T03:14:34;8.07;;;1.60;;
23181;SDS011;11759;51.282;6.642;2022-07-29T03:17:02;6.78;;;1.55;;
23181;SDS011;11759;51.282;6.642;2022-07-29T03:19:28;8.57;;;1.77;;
23181;SDS011;11759;51.282;6.642;2022-07-29T03:21:56;5.40;;;1.50;;
23181;SDS011;11759;51.282;6.642;2022-07-29T03:24:24;4.00;;;1.35;;
23181;SDS011;11759;51.282;6.642;2022-07-29T03:26:55;6.32;;;1.60;;
23181;SDS011;11759;51.282;6.642;2022-07-29T03:29:22;15.73;;;1.92;;
23181;SDS011;11759;51.282;6.642;2022-07-29T03:31:50;3.22;;;1.83;;
23181;SDS011;11759;51.282;6.642;2022-07-29T03:34:18;3.30;;;1.55;;
23181;SDS011;11759;51.282;6.642;2022-07-29T03:36:48;8.30;;;1.50;;
23181;SDS011;11759;51.282;6.642;2022-07-29T03:39:17;4.32;;;1.95;;
23181;SDS011;11759;51.282;6.642;2022-07-29T03:41:45;7.78;;;2.17;;
23181;SDS011;11759;51.282;6.642;2022-07-29T03:44:14;11.00;;;2.83;;
23181;SDS011;11759;51.282;6.642;2022-07-29T03:46:42;9.70;;;3.05;;
23181;SDS011;11759;51.282;6.642;2022-07-29T03:49:10;10.68;;;2.83;;
23181;SDS011;11759;51.282;6.642;2022-07-29T03:51:37;8.65;;;2.90;;
23181;SDS011;11759;51.282;6.642;2022-07-29T03:54:04;8.98;;;3.65;;
23181;SDS011;11759;51.282;6.642;2022-07-29T03:56:37;11.43;;;2.97;;
23181;SDS011;11759;51.282;6.642;2022-07-29T03:59:05;15.10;;;3.30;;
23181;SDS011;11759;51.282;6.642;2022-07-29T04:01:32;8.57;;;3.58;;
23181;SDS011;11759;51.282;6.642;2022-07-29T04:04:00;8.80;;;3.20;;
23181;SDS011;11759;51.282;6.642;2022-07-29T04:06:27;9.63;;;3.63;;
23181;SDS011;11759;51.282;6.642;2022-07-29T04:08:54;10.82;;;3.78;;
23181;SDS011;11759;51.282;6.642;2022-07-29T04:11:20;6.65;;;3.67;;
23181;SDS011;11759;51.282;6.642;2022-07-29T04:13:47;11.52;;;3.72;;
23181;SDS011;11759;51.282;6.642;2022-07-29T04:16:13;9.85;;;5.00;;
23181;SDS011;11759;51.282;6.642;2022-07-29T04:18:40;9.55;;;4.88;;
23181;SDS011;11759;51.282;6.642;2022-07-29T04:21:07;15.85;;;5.25;;
23181;SDS011;11759;51.282;6.642;2022-07-29T04:23:33;15.10;;;5.25;;
23181;SDS011;11759;51.282;6.642;2022-07-29T04:26:00;22.90;;;6.00;;
23181;SDS011;11759;51.282;6.642;2022-07-29T04:28:27;13.57;;;6.15;;
23181;SDS011;11759;51.282;6.642;2022-07-29T04:30:53;11.75;;;5.97;;
23181;SDS011;11759;51.282;6.642;2022-07-29T04:33:20;11.38;;;6.88;;
23181;SDS011;11759;51.282;6.642;2022-07-29T04:35:50;16.90;;;7.72;;
23181;SDS011;11759;51.282;6.642;2022-07-29T04:38:20;18.13;;;7.30;;
23181;SDS011;11759;51.282;6.642;2022-07-29T04:40:48;18.73;;;8.52;;
23181;SDS011;11759;51.282;6.642;2022-07-29T04:43:15;19.25;;;8.32;;
23181;SDS011;11759;51.282;6.642;2022-07-29T04:45:48;20.33;;;8.38;;
23181;SDS011;11759;51.282;6.642;2022-07-29T04:48:15;29.50;;;10.05;;
23181;SDS011;11759;51.282;6.642;2022-07-29T04:50:41;29.60;;;9.30;;
23181;SDS011;11759;51.282;6.642;2022-07-29T04:53:08;18.15;;;9.25;;
23181;SDS011;11759;51.282;6.642;2022-07-29T04:55:34;21.92;;;9.57;;
23181;SDS011;11759;51.282;6.642;2022-07-29T04:58:04;18.15;;;9.98;;
23181;SDS011;11759;51.282;6.642;2022-07-29T05:00:30;25.80;;;11.10;;
23181;SDS011;11759;51.282;6.642;2022-07-29T05:02:59;29.45;;;11.50;;
23181;SDS011;11759;51.282;6.642;2022-07-29T05:05:25;22.08;;;11.32;;
23181;SDS011;11759;51.282;6.642;2022-07-29T05:07:52;18.15;;;9.85;;
23181;SDS011;11759;51.282;6.642;2022-07-29T05:10:19;22.33;;;9.85;;
23181;SDS011;11759;51.282;6.642;2022-07-29T05:12:46;22.70;;;10.18;;
23181;SDS011;11759;51.282;6.642;2022-07-29T05:15:12;26.08;;;10.20;;
23181;SDS011;11759;51.282;6.642;2022-07-29T05:17:39;23.95;;;9.95;;
23181;SDS011;11759;51.282;6.642;2022-07-29T05:20:06;24.25;;;9.55;;
23181;SDS011;11759;51.282;6.642;2022-07-29T05:22:33;20.73;;;9.98;;
23181;SDS011;11759;51.282;6.642;2022-07-29T05:25:00;19.65;;;8.43;;
23181;SDS011;11759;51.282;6.642;2022-07-29T05:27:33;22.02;;;8.30;;
23181;SDS011;11759;51.282;6.642;2022-07-29T05:30:01;13.15;;;8.20;;
23181;SDS011;11759;51.282;6.642;2022-07-29T05:32:28;17.45;;;8.50;;
23181;SDS011;11759;51.282;6.642;2022-07-29T05:34:55;19.42;;;8.95;;
23181;SDS011;11759;51.282;6.642;2022-07-29T05:37:21;15.20;;;8.35;;
23181;SDS011;11759;51.282;6.642;2022-07-29T05:39:48;15.57;;;8.45;;
23181;SDS011;11759;51.282;6.642;2022-07-29T05:42:23;19.52;;;8.43;;
23181;SDS011;11759;51.282;6.642;2022-07-29T05:44:50;13.95;;;7.90;;
23181;SDS011;11759;51.282;6.642;2022-07-29T05:47:17;16.50;;;8.45;;
23181;SDS011;11759;51.282;6.642;2022-07-29T05:49:44;22.27;;;8.55;;
23181;SDS011;11759;51.282;6.642;2022-07-29T05:52:11;23.73;;;8.23;;
23181;SDS011;11759;51.282;6.642;2022-07-29T05:54:39;14.75;;;7.53;;
23181;SDS011;11759;51.282;6.642;2022-07-29T05:57:06;29.02;;;7.95;;
23181;SDS011;11759;51.282;6.642;2022-07-29T05:59:36;25.15;;;7.50;;
23181;SDS011;11759;51.282;6.642;2022-07-29T06:02:03;19.52;;;7.93;;
23181;SDS011;11759;51.282;6.642;2022-07-29T06:04:31;15.98;;;6.28;;
23181;SDS011;11759;51.282;6.642;2022-07-29T06:06:59;18.10;;;7.05;;
23181;SDS011;11759;51.282;6.642;2022-07-29T06:09:26;15.60;;;6.35;;
23181;SDS011;11759;51.282;6.642;2022-07-29T06:11:54;21.00;;;6.55;;
23181;SDS011;11759;51.282;6.642;2022-07-29T06:14:21;15.25;;;6.20;;
23181;SDS011;11759;51.282;6.642;2022-07-29T06:16:47;14.80;;;7.15;;
23181;SDS011;11759;51.282;6.642;2022-07-29T06:19:14;13.00;;;7.20;;
23181;SDS011;11759;51.282;6.642;2022-07-29T06:21:46;12.88;;;7.07;;
23181;SDS011;11759;51.282;6.642;2022-07-29T06:24:14;17.95;;;7.22;;
23181;SDS011;11759;51.282;6.642;2022-07-29T06:26:42;16.30;;;7.18;;
23181;SDS011;11759;51.282;6.642;2022-07-29T06:29:09;15.88;;;6.75;;
23181;SDS011;11759;51.282;6.642;2022-07-29T06:31:39;16.60;;;5.75;;
23181;SDS011;11759;51.282;6.642;2022-07-29T06:34:06;12.00;;;6.28;;
23181;SDS011;11759;51.282;6.642;2022-07-29T06:36:36;13.25;;;5.97;;
23181;SDS011;11759;51.282;6.642;2022-07-29T06:39:05;21.35;;;6.60;;
23181;SDS011;11759;51.282;6.642;2022-07-29T06:41:33;12.68;;;5.82;;
23181;SDS011;11759;51.282;6.642;2022-07-29T06:44:07;14.40;;;6.28;;
23181;SDS011;11759;51.282;6.642;2022-07-29T06:46:35;12.73;;;6.18;;
23181;SDS011;11759;51.282;6.642;2022-07-29T06:49:02;16.25;;;6.78;;
23181;SDS011;11759;51.282;6.642;2022-07-29T06:51:28;13.00;;;6.50;;
23181;SDS011;11759;51.282;6.642;2022-07-29T06:53:55;16.02;;;6.93;;
23181;SDS011;11759;51.282;6.642;2022-07-29T06:56:29;11.80;;;5.80;;
23181;SDS011;11759;51.282;6.642;2022-07-29T06:58:57;14.98;;;6.97;;
23181;SDS011;11759;51.282;6.642;2022-07-29T07:01:23;14.10;;;6.43;;
23181;SDS011;11759;51.282;6.642;2022-07-29T07:03:50;12.45;;;6.38;;
23181;SDS011;11759;51.282;6.642;2022-07-29T07:06:16;15.90;;;7.30;;
23181;SDS011;11759;51.282;6.642;2022-07-29T07:08:43;11.15;;;7.00;;
23181;SDS011;11759;51.282;6.642;2022-07-29T07:11:10;15.98;;;7.18;;
23181;SDS011;11759;51.282;6.642;2022-07-29T07:13:36;12.75;;;7.35;;
23181;SDS011;11759;51.282;6.642;2022-07-29T07:16:04;14.85;;;7.38;;
23181;SDS011;11759;51.282;6.642;2022-07-29T07:18:30;16.20;;;7.72;;
23181;SDS011;11759;51.282;6.642;2022-07-29T07:20:57;14.52;;;7.20;;
23181;SDS011;11759;51.282;6.642;2022-07-29T07:23:24;26.40;;;8.68;;
23181;SDS011;11759;51.282;6.642;2022-07-29T07:25:51;15.52;;;7.55;;
23181;SDS011;11759;51.282;6.642;2022-07-29T07:28:18;15.40;;;7.90;;
23181;SDS011;11759;51.282;6.642;2022-07-29T07:30:50;20.40;;;7.70;;
23181;SDS011;11759;51.282;6.642;2022-07-29T07:33:17;16.83;;;7.85;;
23181;SDS011;11759;51.282;6.642;2022-07-29T07:35:44;19.33;;;8.70;;
23181;SDS011;11759;51.282;6.642;2022-07-29T07:38:11;25.00;;;9.52;;
23181;SDS011;11759;51.282;6.642;2022-07-29T07:40:37;18.08;;;9.02;;
23181;SDS011;11759;51.282;6.642;2022-07-29T07:43:04;22.50;;;8.85;;
23181;SDS011;11759;51.282;6.642;2022-07-29T07:45:30;20.00;;;9.48;;
23181;SDS011;11759;51.282;6.642;2022-07-29T07:47:59;17.10;;;8.00;;
23181;SDS011;11759;51.282;6.642;2022-07-29T07:50:26;18.42;;;8.15;;
23181;SDS011;11759;51.282;6.642;2022-07-29T07:52:54;14.23;;;7.82;;
23181;SDS011;11759;51.282;6.642;2022-07-29T07:55:24;16.90;;;7.82;;
23181;SDS011;11759;51.282;6.642;2022-07-29T07:57:51;13.05;;;7.70;;
23181;SDS011;11759;51.282;6.642;2022-07-29T08:00:18;15.38;;;8.30;;
23181;SDS011;11759;51.282;6.642;2022-07-29T08:02:48;19.25;;;7.53;;
23181;SDS011;11759;51.282;6.642;2022-07-29T08:05:16;12.15;;;6.88;;
23181;SDS011;11759;51.282;6.642;2022-07-29T08:07:46;20.45;;;7.18;;
23181;SDS011;11759;51.282;6.642;2022-07-29T08:10:16;14.85;;;7.22;;
23181;SDS011;11759;51.282;6.642;2022-07-29T08:13:06;13.32;;;6.75;;
23181;SDS011;11759;51.282;6.642;2022-07-29T08:18:00;19.23;;;7.95;;
23181;SDS011;11759;51.282;6.642;2022-07-29T08:20:33;14.85;;;7.78;;
23181;SDS011;11759;51.282;6.642;2022-07-29T08:23:02;17.00;;;8.05;;
23181;SDS011;11759;51.282;6.642;2022-07-29T08:25:29;17.58;;;8.10;;
23181;SDS011;11759;51.282;6.642;2022-07-29T08:27:55;15.07;;;7.70;;
23181;SDS011;11759;51.282;6.642;2022-07-29T08:30:22;15.10;;;7.50;;
23181;SDS011;11759;51.282;6.642;2022-07-29T08:32:49;23.35;;;8.07;;
23181;SDS011;11759;51.282;6.642;2022-07-29T08:35:21;16.45;;;7.72;;
23181;SDS011;11759;51.282;6.642;2022-07-29T08:37:48;18.27;;;7.60;;
23181;SDS011;11759;51.282;6.642;2022-07-29T08:40:15;18.23;;;8.18;;
23181;SDS011;11759;51.282;6.642;2022-07-29T08:42:42;23.88;;;7.88;;
23181;SDS011;11759;51.282;6.642;2022-07-29T08:45:09;20.65;;;7.15;;
23181;SDS011;11759;51.282;6.642;2022-07-29T08:47:36;20.77;;;7.03;;
23181;SDS011;11759;51.282;6.642;2022-07-29T08:50:09;15.80;;;6.63;;
23181;SDS011;11759;51.282;6.642;2022-07-29T08:52:37;12.00;;;5.60;;
23181;SDS011;11759;51.282;6.642;2022-07-29T08:55:05;10.73;;;5.75;;
23181;SDS011;11759;51.282;6.642;2022-07-29T08:57:35;19.30;;;5.45;;
23181;SDS011;11759;51.282;6.642;2022-07-29T09:00:06;22.70;;;5.47;;
23181;SDS011;11759;51.282;6.642;2022-07-29T09:02:41;14.13;;;4.68;;
23181;SDS011;11759;51.282;6.642;2022-07-29T09:05:12;9.18;;;4.47;;
23181;SDS011;11759;51.282;6.642;2022-07-29T09:07:38;15.75;;;5.32;;
23181;SDS011;11759;51.282;6.642;2022-07-29T09:10:05;14.48;;;5.35;;
23181;SDS011;11759;51.282;6.642;2022-07-29T09:12:32;14.90;;;6.28;;
23181;SDS011;11759;51.282;6.642;2022-07-29T09:15:03;24.15;;;7.00;;
23181;SDS011;11759;51.282;6.642;2022-07-29T09:17:48;14.18;;;6.28;;
23181;SDS011;11759;51.282;6.642;2022-07-29T09:20:21;13.55;;;6.00;;
23181;SDS011;11759;51.282;6.642;2022-07-29T09:22:49;21.58;;;7.07;;
23181;SDS011;11759;51.282;6.642;2022-07-29T09:25:32;16.52;;;6.93;;
23181;SDS011;11759;51.282;6.642;2022-07-29T09:28:05;20.35;;;7.38;;
23181;SDS011;11759;51.282;6.642;2022-07-29T09:33:17;18.48;;;5.80;;
23181;SDS011;11759;51.282;6.642;2022-07-29T09:35:44;17.17;;;7.13;;
23181;SDS011;11759;51.282;6.642;2022-07-29T09:38:22;13.52;;;6.53;;
23181;SDS011;11759;51.282;6.642;2022-07-29T09:40:58;13.15;;;6.60;;
23181;SDS011;11759;51.282;6.642;2022-07-29T09:43:32;23.08;;;7.22;;
23181;SDS011;11759;51.282;6.642;2022-07-29T09:46:11;15.77;;;6.75;;
23181;SDS011;11759;51.282;6.642;2022-07-29T09:48:39;17.38;;;7.07;;
23181;SDS011;11759;51.282;6.642;2022-07-29T09:51:16;16.80;;;6.78;;
23181;SDS011;11759;51.282;6.642;2022-07-29T09:53:52;23.13;;;6.50;;
23181;SDS011;11759;51.282;6.642;2022-07-29T09:56:18;13.52;;;6.10;;
23181;SDS011;11759;51.282;6.642;2022-07-29T09:58:45;14.82;;;6.78;;
23181;SDS011;11759;51.282;6.642;2022-07-29T10:01:12;18.92;;;5.70;;
23181;SDS011;11759;51.282;6.642;2022-07-29T10:03:51;16.88;;;5.88;;
23181;SDS011;11759;51.282;6.642;2022-07-29T10:06:18;14.05;;;6.20;;
23181;SDS011;11759;51.282;6.642;2022-07-29T10:08:45;16.00;;;6.53;;
23181;SDS011;11759;51.282;6.642;2022-07-29T10:11:13;19.17;;;5.22;;
23181;SDS011;11759;51.282;6.642;2022-07-29T10:13:41;13.60;;;5.65;;
23181;SDS011;11759;51.282;6.642;2022-07-29T10:16:09;13.75;;;5.47;;
23181;SDS011;11759;51.282;6.642;2022-07-29T10:18:39;13.52;;;6.07;;
23181;SDS011;11759;51.282;6.642;2022-07-29T10:21:07;18.27;;;6.40;;
23181;SDS011;11759;51.282;6.642;2022-07-29T10:23:34;26.08;;;7.30;;
23181;SDS011;11759;51.282;6.642;2022-07-29T10:26:12;18.25;;;7.65;;
23181;SDS011;11759;51.282;6.642;2022-07-29T10:28:39;16.05;;;7.47;;
23181;SDS011;11759;51.282;6.642;2022-07-29T10:31:07;16.42;;;6.57;;
23181;SDS011;11759;51.282;6.642;2022-07-29T10:33:47;12.32;;;6.05;;
23181;SDS011;11759;51.282;6.642;2022-07-29T10:39:16;19.05;;;6.45;;
23181;SDS011;11759;51.282;6.642;2022-07-29T10:44:39;15.32;;;6.20;;
23181;SDS011;11759;51.282;6.642;2022-07-29T10:47:07;13.32;;;5.82;;
23181;SDS011;11759;51.282;6.642;2022-07-29T10:49:35;13.43;;;5.03;;
23181;SDS011;11759;51.282;6.642;2022-07-29T10:52:07;12.38;;;4.95;;
23181;SDS011;11759;51.282;6.642;2022-07-29T10:57:17;22.42;;;6.03;;
23181;SDS011;11759;51.282;6.642;2022-07-29T10:59:46;11.73;;;5.20;;
23181;SDS011;11759;51.282;6.642;2022-07-29T11:02:40;10.60;;;4.95;;
23181;SDS011;11759;51.282;6.642;2022-07-29T11:05:13;12.85;;;5.32;;
23181;SDS011;11759;51.282;6.642;2022-07-29T11:10:46;10.65;;;5.20;;
23181;SDS011;11759;51.282;6.642;2022-07-29T11:16:14;10.60;;;5.63;;
23181;SDS011;11759;51.282;6.642;2022-07-29T11:21:52;13.57;;;4.85;;
23181;SDS011;11759;51.282;6.642;2022-07-29T11:29:50;11.47;;;4.73;;
23181;SDS011;11759;51.282;6.642;2022-07-29T11:32:21;8.77;;;4.47;;
23181;SDS011;11759;51.282;6.642;2022-07-29T11:35:10;13.25;;;4.90;;
23181;SDS011;11759;51.282;6.642;2022-07-29T11:37:45;12.00;;;4.35;;
23181;SDS011;11759;51.282;6.642;2022-07-29T11:40:21;13.07;;;4.40;;
23181;SDS011;11759;51.282;6.642;2022-07-29T11:42:48;11.55;;;4.40;;
23181;SDS011;11759;51.282;6.642;2022-07-29T11:45:18;13.57;;;4.22;;
23181;SDS011;11759;51.282;6.642;2022-07-29T11:48:06;15.50;;;5.05;;
23181;SDS011;11759;51.282;6.642;2022-07-29T11:50:53;15.40;;;4.95;;
23181;SDS011;11759;51.282;6.642;2022-07-29T11:53:20;20.95;;;5.55;;
23181;SDS011;11759;51.282;6.642;2022-07-29T11:55:47;17.42;;;6.20;;
23181;SDS011;11759;51.282;6.642;2022-07-29T11:58:21;15.65;;;5.35;;
23181;SDS011;11759;51.282;6.642;2022-07-29T12:00:52;19.40;;;6.38;;
23181;SDS011;11759;51.282;6.642;2022-07-29T12:03:25;18.15;;;5.75;;
23181;SDS011;11759;51.282;6.642;2022-07-29T12:06:02;18.58;;;6.28;;
23181;SDS011;11759;51.282;6.642;2022-07-29T12:08:29;11.00;;;5.53;;
23181;SDS011;11759;51.282;6.642;2022-07-29T12:10:56;16.05;;;5.47;;
23181;SDS011;11759;51.282;6.642;2022-07-29T12:13:24;16.38;;;5.57;;
23181;SDS011;11759;51.282;6.642;2022-07-29T12:16:03;10.13;;;5.28;;
23181;SDS011;11759;51.282;6.642;2022-07-29T12:18:30;11.30;;;4.90;;
23181;SDS011;11759;51.282;6.642;2022-07-29T12:20:58;11.23;;;4.45;;
23181;SDS011;11759;51.282;6.642;2022-07-29T12:28:27;12.48;;;4.07;;
23181;SDS011;11759;51.282;6.642;2022-07-29T12:30:53;9.05;;;3.78;;
23181;SDS011;11759;51.282;6.642;2022-07-29T12:33:21;6.90;;;3.13;;
23181;SDS011;11759;51.282;6.642;2022-07-29T12:35:49;7.60;;;3.35;;
23181;SDS011;11759;51.282;6.642;2022-07-29T12:38:32;6.20;;;2.88;;
23181;SDS011;11759;51.282;6.642;2022-07-29T12:41:00;7.47;;;3.50;;
23181;SDS011;11759;51.282;6.642;2022-07-29T12:43:29;8.98;;;3.42;;
23181;SDS011;11759;51.282;6.642;2022-07-29T12:45:57;8.13;;;3.33;;
23181;SDS011;11759;51.282;6.642;2022-07-29T12:48:36;8.35;;;3.60;;
23181;SDS011;11759;51.282;6.642;2022-07-29T12:51:04;7.38;;;2.80;;
23181;SDS011;11759;51.282;6.642;2022-07-29T12:53:33;6.43;;;3.22;;
23181;SDS011;11759;51.282;6.642;2022-07-29T12:56:01;9.70;;;3.42;;
23181;SDS011;11759;51.282;6.642;2022-07-29T12:58:49;4.90;;;2.58;;
23181;SDS011;11759;51.282;6.642;2022-07-29T13:01:17;8.05;;;2.97;;
23181;SDS011;11759;51.282;6.642;2022-07-29T13:06:28;8.02;;;3.35;;
23181;SDS011;11759;51.282;6.642;2022-07-29T13:11:27;8.90;;;3.28;;
23181;SDS011;11759;51.282;6.642;2022-07-29T13:13:59;6.38;;;3.10;;
23181;SDS011;11759;51.282;6.642;2022-07-29T13:16:32;5.18;;;2.75;;
23181;SDS011;11759;51.282;6.642;2022-07-29T13:19:06;6.57;;;3.00;;
23181;SDS011;11759;51.282;6.642;2022-07-29T13:21:35;8.45;;;3.28;;
23181;SDS011;11759;51.282;6.642;2022-07-29T13:24:03;8.57;;;3.15;;
23181;SDS011;11759;51.282;6.642;2022-07-29T13:26:30;5.78;;;3.30;;
23181;SDS011;11759;51.282;6.642;2022-07-29T13:28:57;9.15;;;3.58;;
23181;SDS011;11759;51.282;6.642;2022-07-29T13:31:23;6.78;;;3.25;;
23181;SDS011;11759;51.282;6.642;2022-07-29T13:33:50;8.95;;;2.97;;
23181;SDS011;11759;51.282;6.642;2022-07-29T13:36:18;9.40;;;3.38;;
23181;SDS011;11759;51.282;6.642;2022-07-29T13:38:44;12.25;;;2.95;;
23181;SDS011;11759;51.282;6.642;2022-07-29T13:41:11;10.85;;;3.35;;
23181;SDS011;11759;51.282;6.642;2022-07-29T13:43:38;8.00;;;3.00;;
23181;SDS011;11759;51.282;6.642;2022-07-29T13:46:04;7.05;;;3.17;;
23181;SDS011;11759;51.282;6.642;2022-07-29T13:48:31;6.45;;;2.90;;
23181;SDS011;11759;51.282;6.642;2022-07-29T13:51:01;9.32;;;2.75;;
23181;SDS011;11759;51.282;6.642;2022-07-29T13:53:28;8.65;;;3.13;;
23181;SDS011;11759;51.282;6.642;2022-07-29T13:55:55;10.57;;;3.35;;
23181;SDS011;11759;51.282;6.642;2022-07-29T13:58:22;7.22;;;2.55;;
23181;SDS011;11759;51.282;6.642;2022-07-29T14:00:49;7.18;;;2.22;;
23181;SDS011;11759;51.282;6.642;2022-07-29T14:03:16;5.10;;;2.10;;
23181;SDS011;11759;51.282;6.642;2022-07-29T14:05:42;6.20;;;2.10;;
23181;SDS011;11759;51.282;6.642;2022-07-29T14:08:09;6.85;;;2.70;;
23181;SDS011;11759;51.282;6.642;2022-07-29T14:10:35;6.65;;;2.30;;
23181;SDS011;11759;51.282;6.642;2022-07-29T14:13:02;5.10;;;2.10;;
23181;SDS011;11759;51.282;6.642;2022-07-29T14:15:29;8.27;;;2.03;;
23181;SDS011;11759;51.282;6.642;2022-07-29T14:17:55;4.78;;;1.92;;
23181;SDS011;11759;51.282;6.642;2022-07-29T14:20:22;5.75;;;2.00;;
23181;SDS011;11759;51.282;6.642;2022-07-29T14:22:48;6.13;;;2.05;;
23181;SDS011;11759;51.282;6.642;2022-07-29T14:25:15;3.65;;;2.08;;
23181;SDS011;11759;51.282;6.642;2022-07-29T14:27:42;6.40;;;2.00;;
23181;SDS011;11759;51.282;6.642;2022-07-29T14:30:09;6.10;;;2.22;;
23181;SDS011;11759;51.282;6.642;2022-07-29T14:32:36;13.15;;;2.17;;
23181;SDS011;11759;51.282;6.642;2022-07-29T14:35:03;8.55;;;2.33;;
23181;SDS011;11759;51.282;6.642;2022-07-29T14:37:31;7.13;;;2.28;;
23181;SDS011;11759;51.282;6.642;2022-07-29T14:40:06;4.78;;;1.90;;
23181;SDS011;11759;51.282;6.642;2022-07-29T14:42:33;7.20;;;2.20;;
23181;SDS011;11759;51.282;6.642;2022-07-29T14:44:59;8.60;;;2.22;;
23181;SDS011;11759;51.282;6.642;2022-07-29T14:47:26;7.80;;;2.17;;
23181;SDS011;11759;51.282;6.642;2022-07-29T14:49:53;5.05;;;1.90;;
23181;SDS011;11759;51.282;6.642;2022-07-29T14:52:20;7.05;;;2.00;;
23181;SDS011;11759;51.282;6.642;2022-07-29T14:54:46;12.10;;;2.60;;
23181;SDS011;11759;51.282;6.642;2022-07-29T14:57:13;5.68;;;2.13;;
23181;SDS011;11759;51.282;6.642;2022-07-29T14:59:39;7.22;;;2.08;;
23181;SDS011;11759;51.282;6.642;2022-07-29T15:02:06;5.90;;;2.38;;
23181;SDS011;11759;51.282;6.642;2022-07-29T15:07:41;5.05;;;2.13;;
23181;SDS011;11759;51.282;6.642;2022-07-29T15:10:09;8.10;;;2.40;;
23181;SDS011;11759;51.282;6.642;2022-07-29T15:12:40;8.00;;;2.28;;
23181;SDS011;11759;51.282;6.642;2022-07-29T15:15:08;11.85;;;2.28;;
23181;SDS011;11759;51.282;6.642;2022-07-29T15:17:35;6.38;;;2.33;;
23181;SDS011;11759;51.282;6.642;2022-07-29T15:20:02;8.77;;;2.22;;
23181;SDS011;11759;51.282;6.642;2022-07-29T15:22:29;6.07;;;2.45;;
23181;SDS011;11759;51.282;6.642;2022-07-29T15:24:56;4.85;;;2.00;;
23181;SDS011;11759;51.282;6.642;2022-07-29T15:27:22;4.70;;;2.00;;
23181;SDS011;11759;51.282;6.642;2022-07-29T15:29:49;6.97;;;2.22;;
23181;SDS011;11759;51.282;6.642;2022-07-29T15:32:15;6.35;;;2.10;;
23181;SDS011;11759;51.282;6.642;2022-07-29T15:34:42;3.90;;;2.03;;
23181;SDS011;11759;51.282;6.642;2022-07-29T15:37:09;8.82;;;2.38;;
23181;SDS011;11759;51.282;6.642;2022-07-29T15:39:37;5.97;;;2.35;;
23181;SDS011;11759;51.282;6.642;2022-07-29T15:42:04;6.82;;;2.33;;
23181;SDS011;11759;51.282;6.642;2022-07-29T15:44:30;7.57;;;2.50;;
23181;SDS011;11759;51.282;6.642;2022-07-29T15:46:57;9.45;;;2.75;;
23181;SDS011;11759;51.282;6.642;2022-07-29T15:49:34;6.65;;;2.97;;
23181;SDS011;11759;51.282;6.642;2022-07-29T15:52:17;12.38;;;3.40;;